Data for 06/29/2005

Time Sea-Level Adjusted Pressure Absolute Pressure Temperature Relative Humidity Dew Point   
(mb) (inHg) (mb) (inHg) (C) (F) (%) (C) (F)
00:05 1018 30.06 847 25.01 11.8 53.3 83 9 48.2
00:10 1018 30.06 847 25.01 11.7 53 84 9 48.2
00:15 1018 30.06 847 25.01 11.6 52.8 84 9 48.2
00:20 1018 30.06 847 25.01 11.5 52.7 82 8.6 47.5
00:25 1018 30.06 847 25.01 11.6 52.8 82 8.7 47.6
00:30 1018 30.06 847 25.01 11.6 52.9 80 8.3 47
00:35 1018 30.06 847 25.01 11.6 53 77 7.8 46.1
00:40 1018 30.06 847 25.01 11.6 52.9 77 7.8 46.1
00:45 1018 30.06 847 25.01 11.6 53 78 7.9 46.2
00:50 1018 30.06 847 25.01 11.6 52.9 78 7.9 46.3
00:55 1018 30.06 847 25.01 11.6 52.8 74 7.2 44.9
01:00 1018 30.06 847 25.01 11.5 52.7 75 7.2 44.9
01:05 1018 30.06 847 25.01 11.4 52.5 79 7.9 46.3
01:10 1018 30.06 847 25.01 11.2 52.2 79 7.8 46
01:15 1018 30.06 847 25.01 11 51.9 81 7.8 46.1
01:20 1018 30.06 847 25.01 10.9 51.7 79 7.5 45.4
01:25 1018 30.06 847 25.01 10.9 51.7 77 7.1 44.8
01:30 1018 30.06 847 25.01 11 51.7 73 6.4 43.5
01:35 1018 30.06 847 25.01 11.1 51.9 75 6.7 44.1
01:40 1018 30.06 847 25.01 11.1 52 74 6.7 44.1
01:45 1018 30.06 847 25.01 11 51.8 74 6.6 44
01:50 1018 30.06 847 25.01 11 51.7 75 6.7 44
01:55 1018 30.06 847 25.01 10.9 51.7 77 7.1 44.8
02:00 1018 30.06 847 25.01 10.9 51.6 79 7.5 45.4
02:05 1018 30.06 847 25.01 10.7 51.3 79 7.3 45.2
02:10 1018 30.06 847 25.01 10.8 51.4 79 7.2 45
02:15 1018 30.06 847 25.01 10.7 51.2 81 7.6 45.6
02:20 1018 30.06 847 25.01 10.2 50.4 84 7.7 45.8
02:25 1018 30.06 847 25.01 10.1 50.1 84 7.6 45.7
02:30 1018 30.06 847 25.01 10 50 84 7.4 45.3
02:35 1018 30.06 847 25.01 9.8 49.6 84 7.2 45
02:40 1018 30.06 847 25.01 9.6 49.3 84 7.1 44.7
02:45 1018 30.06 847 25.01 9.7 49.5 82 6.7 44.1
02:50 1018 30.06 847 25.01 9.9 49.8 81 6.8 44.2
02:55 1018 30.06 847 25.01 9.9 49.9 80 6.7 44
03:00 1018 30.06 847 25.01 10 49.9 80 6.6 43.9
03:05 1018 30.06 847 25.01 10 50 79 6.6 43.9
03:10 1018 30.06 847 25.01 10.1 50.1 83 7.3 45.2
03:15 1018 30.06 847 25.01 9.8 49.7 85 7.4 45.3
03:20 1018 30.06 847 25.01 9.9 49.8 83 7.2 44.9
03:25 1018 30.06 847 25.01 10 50.1 83 7.2 45
03:30 1018 30.06 847 25.01 10.2 50.4 82 7.3 45.1
03:35 1018 30.06 847 25.01 10.3 50.5 81 7.2 44.9
03:40 1018 30.06 847 25.01 10.3 50.5 80 7 44.7
03:45 1018 30.06 847 25.01 10.2 50.4 80 7 44.6
03:50 1018 30.06 847 25.01 10.2 50.3 81 7 44.6
03:55 1018 30.06 847 25.01 10.2 50.3 80 6.9 44.4
04:00 1018 30.06 847 25.01 10.2 50.4 79 6.8 44.2
04:05 1018 30.06 847 25.01 10.2 50.4 78 6.6 44
04:10 1018 30.06 847 25.01 10.3 50.6 79 6.9 44.4
04:15 1018 30.06 847 25.01 10.4 50.6 78 6.7 44.1
04:20 1018 30.06 847 25.01 10.4 50.8 78 6.8 44.2
04:25 1018 30.06 847 25.01 10.4 50.6 78 6.7 44.1
04:30 1018 30.06 847 25.01 10.4 50.7 78 6.7 44.1
04:35 1018 30.06 848 25.04 10.5 51 77 6.7 44.1
04:40 1018 30.06 848 25.04 10.6 51.2 77 6.8 44.2
04:45 1018 30.06 848 25.04 10.7 51.2 77 6.8 44.2
04:50 1018 30.06 848 25.04 10.7 51.2 77 6.8 44.3
04:55 1018 30.06 848 25.04 10.6 51.2 77 6.8 44.2
05:00 1018 30.06 848 25.04 10.7 51.2 76 6.7 44
05:05 1018 30.06 848 25.04 10.8 51.4 75 6.5 43.8
05:10 1018 30.06 848 25.04 10.9 51.5 76 6.8 44.2
05:15 1018 30.06 848 25.04 10.9 51.5 76 6.9 44.3
05:20 1019 30.09 848 25.04 10.8 51.5 77 7 44.6
05:25 1019 30.09 848 25.04 10.8 51.4 77 6.9 44.4
05:30 1019 30.09 848 25.04 10.8 51.5 76 6.7 44.1
05:35 1019 30.09 848 25.04 10.8 51.5 76 6.8 44.3
05:40 1019 30.09 848 25.04 10.9 51.5 76 6.9 44.4
05:45 1019 30.09 848 25.04 10.9 51.6 77 7.1 44.7
05:50 1019 30.09 848 25.04 10.8 51.5 77 6.9 44.4
05:55 1019 30.09 848 25.04 10.9 51.5 76 6.8 44.3
06:00 1019 30.09 848 25.04 10.8 51.4 76 6.8 44.3
06:05 1019 30.09 848 25.04 10.7 51.3 80 7.4 45.2
06:10 1019 30.09 848 25.04 10.7 51.2 78 6.9 44.5
06:15 1019 30.09 848 25.04 10.6 51.1 78 7 44.6
06:20 1019 30.09 848 25.04 10.8 51.5 76 6.8 44.3
06:25 1019 30.09 848 25.04 11.5 52.7 74 7 44.6
06:30 1019 30.09 848 25.04 11.8 53.2 72 7 44.6
06:35 1019 30.09 848 25.04 11.6 52.9 74 7.2 45
06:40 1019 30.09 848 25.04 11.4 52.5 75 7.2 44.9
06:45 1019 30.09 848 25.04 11.3 52.3 76 7.2 44.9
06:50 1019 30.09 848 25.04 11.3 52.3 76 7.2 45
06:55 1019 30.09 848 25.04 11.2 52.2 77 7.3 45.1
07:00 1019 30.09 848 25.04 11.3 52.3 76 7.2 45
07:05 1019 30.09 848 25.04 11.3 52.4 76 7.2 45
07:10 1019 30.09 848 25.04 11.3 52.3 75 7.1 44.9
07:15 1019 30.09 848 25.04 11.4 52.5 75 7.2 44.9
07:20 1019 30.09 848 25.04 11.5 52.7 75 7.2 45
07:25 1019 30.09 849 25.07 11.7 53 74 7.2 45
07:30 1019 30.09 849 25.07 11.8 53.2 74 7.2 45
07:35 1019 30.09 849 25.07 12 53.5 74 7.5 45.6
07:40 1019 30.09 849 25.07 12.3 54.1 73 7.7 45.8
07:45 1019 30.09 849 25.07 12.4 54.3 72 7.4 45.4
07:50 1019 30.09 849 25.07 12.5 54.4 69 6.9 44.4
07:55 1019 30.09 849 25.07 12.6 54.6 67 6.7 44
08:00 1019 30.09 849 25.07 12.7 54.9 67 6.9 44.4
08:05 1019 30.09 849 25.07 13 55.4 67 7 44.7
08:10 1019 30.09 849 25.07 13 55.3 67 6.9 44.5
08:15 1019 30.09 849 25.07 13 55.4 67 7 44.6
08:20 1019 30.09 849 25.07 13 55.4 65 6.6 43.8
08:25 1019 30.09 849 25.07 12.9 55.1 65 6.4 43.5
08:30 1019 30.09 849 25.07 13 55.5 65 6.6 43.9
08:35 1020 30.12 849 25.07 13.3 55.9 63 6.5 43.6
08:40 1020 30.12 849 25.07 13.4 56.2 63 6.6 43.8
08:45 1020 30.12 849 25.07 13.6 56.4 63 6.8 44.3
08:50 1020 30.12 849 25.07 13.4 56.2 64 6.9 44.4
08:55 1020 30.12 849 25.07 13.3 56 65 6.9 44.3
09:00 1020 30.12 849 25.07 13.8 56.9 63 7 44.6
09:05 1020 30.12 849 25.07 14.1 57.4 64 7.4 45.4
09:10 1020 30.12 849 25.07 14.2 57.5 63 7.3 45.2
09:15 1020 30.12 849 25.07 14.4 57.8 62 7.3 45.2
09:20 1020 30.12 849 25.07 14.1 57.5 63 7.3 45.1
09:25 1020 30.12 849 25.07 14.1 57.5 64 7.5 45.4
09:30 1020 30.12 849 25.07 14.1 57.4 64 7.5 45.5
09:35 1020 30.12 849 25.07 13.9 56.9 66 7.7 45.9
09:40 1020 30.12 849 25.07 13.7 56.7 71 8.6 47.5
09:45 1020 30.12 849 25.07 13.5 56.2 73 8.8 47.9
09:50 1020 30.12 849 25.07 13.5 56.3 74 8.9 48.1
09:55 1020 30.12 849 25.07 13.5 56.4 77 9.6 49.3
10:00 1020 30.12 849 25.07 13.7 56.6 76 9.5 49.1
10:05 1020 30.12 849 25.07 13.6 56.4 71 8.5 47.3
10:10 1020 30.12 849 25.07 13.2 55.8 74 8.7 47.7
10:15 1020 30.12 849 25.07 13.2 55.7 76 9 48.3
10:20 1020 30.12 849 25.07 12.9 55.1 77 8.9 48
10:25 1020 30.12 849 25.07 12.7 54.9 75 8.4 47.2
10:30 1020 30.12 849 25.07 12.8 55 75 8.5 47.3
10:35 1020 30.12 849 25.07 12.8 55 74 8.4 47
10:40 1020 30.12 849 25.07 12.9 55.1 73 8.2 46.8
10:45 1020 30.12 849 25.07 13 55.4 70 7.8 46.1
10:50 1020 30.12 849 25.07 13.2 55.7 69 7.8 46
10:55 1020 30.12 849 25.07 13.3 55.9 70 7.9 46.2
11:00 1020 30.12 849 25.07 13.4 56.1 65 7 44.7
11:05 1020 30.12 849 25.07 13.3 56 67 7.5 45.4
11:10 1020 30.12 849 25.07 13.4 56.2 69 7.9 46.2
11:15 1020 30.12 849 25.07 13.4 56.2 67 7.5 45.6
11:20 1020 30.12 849 25.07 13.3 55.9 64 6.7 44.1
11:25 1020 30.12 849 25.07 13.2 55.8 66 7.1 44.7
11:30 1020 30.12 849 25.07 13.3 55.9 65 6.9 44.3
11:35 1020 30.12 849 25.07 13.4 56.1 66 7.1 44.8
11:40 1020 30.12 849 25.07 13.9 57 62 6.7 44.1
11:45 1020 30.12 849 25.07 14.1 57.3 61 6.7 44
11:50 1020 30.12 849 25.07 14.1 57.5 63 7.3 45.1
11:55 1020 30.12 849 25.07 14.3 57.7 62 7.1 44.7
12:00 1020 30.12 849 25.07 14.4 57.9 64 7.6 45.7
12:05 1020 30.12 849 25.07 14.8 58.6 62 7.6 45.7
12:10 1020 30.12 849 25.07 15.1 59.1 60 7.5 45.5
12:15 1020 30.12 849 25.07 15.2 59.3 58 7 44.6
12:20 1020 30.12 849 25.07 15.3 59.5 54 6.1 42.9
12:25 1020 30.12 849 25.07 15.2 59.4 60 7.6 45.6
12:30 1020 30.12 849 25.07 14.7 58.4 58 6.6 44
12:35 1020 30.12 849 25.07 14.8 58.6 58 6.7 44.1
12:40 1020 30.12 849 25.07 15.3 59.6 55 6.4 43.5
12:45 1020 30.12 849 25.07 15.5 59.8 55 6.5 43.6
12:50 1020 30.12 849 25.07 16.1 60.9 52 6.2 43.2
12:55 1020 30.12 849 25.07 16.4 61.4 53 6.9 44.3
13:00 1020 30.12 849 25.07 16.3 61.4 53 6.9 44.5
13:05 1020 30.12 849 25.07 16.1 60.9 55 7.1 44.7
13:10 1020 30.12 850 25.1 15.9 60.6 56 7.1 44.8
13:15 1020 30.12 850 25.1 16 60.7 55 7.1 44.8
13:20 1020 30.12 850 25.1 16.2 61.1 56 7.4 45.3
13:25 1020 30.12 850 25.1 16.4 61.4 56 7.6 45.8
13:30 1021 30.15 850 25.1 16.5 61.7 54 7.3 45.2
13:35 1021 30.15 850 25.1 16.7 62 56 7.8 46.1
13:40 1021 30.15 850 25.1 16.4 61.5 57 8 46.4
13:45 1021 30.15 850 25.1 16.4 61.6 53 6.9 44.5
13:50 1021 30.15 850 25.1 16.5 61.7 57 8.2 46.7
13:55 1021 30.15 850 25.1 16.5 61.7 53 6.9 44.5
14:00 1021 30.15 850 25.1 16.8 62.2 53 7.3 45.2
14:05 1021 30.15 850 25.1 17 62.5 51 6.8 44.3
14:10 1021 30.15 850 25.1 17.3 63.1 52 7.4 45.3
14:15 1021 30.15 850 25.1 17.1 62.8 52 7.3 45.2
14:20 1021 30.15 850 25.1 16.7 62 53 7.2 44.9
14:25 1021 30.15 850 25.1 16.6 62 55 7.7 45.8
14:30 1021 30.15 850 25.1 16.7 62 58 8.5 47.4
14:35 1021 30.15 850 25.1 16.6 62 62 9.4 48.8
14:40 1021 30.15 850 25.1 16.2 61.2 62 9.1 48.4
14:45 1020 30.12 850 25.1 17 62.5 56 8.1 46.6
14:50 1020 30.12 850 25.1 18.2 64.8 51 8 46.4
14:55 1020 30.12 850 25.1 19.1 66.4 51 8.8 47.8
15:00 1020 30.12 850 25.1 18.9 66.1 51 8.6 47.5
15:05 1021 30.15 850 25.1 19.1 66.3 49 8.1 46.6
15:10 1021 30.15 850 25.1 18.7 65.7 52 8.8 47.8
15:15 1021 30.15 850 25.1 18 64.3 56 9.3 48.7
15:20 1021 30.15 850 25.1 16.8 62.2 63 9.9 49.7
15:25 1021 30.15 850 25.1 16 60.7 64 9.3 48.7
15:30 1021 30.15 850 25.1 16.1 60.9 62 8.8 47.9
15:35 1021 30.15 850 25.1 17.6 63.6 55 8.6 47.4
15:40 1021 30.15 850 25.1 18 64.5 55 9 48.3
15:45 1021 30.15 850 25.1 18.2 64.8 54 8.9 47.9
15:50 1021 30.15 850 25.1 17.5 63.4 59 9.4 48.9
15:55 1021 30.15 850 25.1 17.5 63.5 56 8.7 47.7
16:00 1021 30.15 850 25.1 17.3 63.1 65 10.8 51.5
16:05 1021 30.15 850 25.1 17.6 63.7 64 10.8 51.4
16:10 1021 30.15 850 25.1 17.1 62.8 63 10 50
16:15 1021 30.15 850 25.1 17.2 63 58 9 48.2
16:20 1021 30.15 850 25.1 17.3 63.2 58 9 48.3
16:25 1021 30.15 850 25.1 17.4 63.3 60 9.6 49.2
16:30 1021 30.15 850 25.1 16.7 62 61 9.2 48.6
16:35 1021 30.15 850 25.1 16.4 61.5 59 8.6 47.5
16:40 1021 30.15 850 25.1 17 62.6 58 8.9 48
16:45 1021 30.15 850 25.1 17.7 63.9 54 8.5 47.2
16:50 1021 30.15 850 25.1 17.4 63.4 56 8.7 47.7
16:55 1021 30.15 850 25.1 17.5 63.4 54 8.2 46.8
17:00 1021 30.15 850 25.1 17.9 64.3 54 8.7 47.6
17:05 1021 30.15 850 25.1 17.8 64 54 8.5 47.4
17:10 1021 30.15 850 25.1 17.4 63.2 58 9 48.2
17:15 1021 30.15 850 25.1 17.4 63.2 59 9.3 48.7
17:20 1021 30.15 850 25.1 17.6 63.7 61 10.1 50.2
17:25 1021 30.15 850 25.1 17.8 64 58 9.4 48.9
17:30 1021 30.15 850 25.1 17.8 64 60 10.1 50.1
17:35 1021 30.15 850 25.1 17.2 63 63 10.2 50.4
17:40 1021 30.15 850 25.1 17.6 63.7 60 9.9 49.8
17:45 1021 30.15 850 25.1 17.8 64 56 8.9 48.1
17:50 1021 30.15 850 25.1 17.7 63.9 56 8.9 48.1
17:55 1021 30.15 850 25.1 17.9 64.2 57 9.3 48.7
18:00 1021 30.15 850 25.1 17.7 63.8 58 9.3 48.8
18:05 1021 30.15 850 25.1 18.1 64.5 55 8.9 48
18:10 1021 30.15 850 25.1 18.1 64.6 57 9.5 49
18:15 1021 30.15 850 25.1 17.6 63.7 58 9.3 48.7
18:20 1021 30.15 850 25.1 18.2 64.7 57 9.5 49.1
18:25 1021 30.15 850 25.1 17.9 64.3 55 9 48.1
18:30 1021 30.15 850 25.1 17.5 63.5 58 9.2 48.6
18:35 1021 30.15 850 25.1 17.3 63.2 59 9.2 48.6
18:40 1021 30.15 850 25.1 17.5 63.4 58 9.3 48.8
18:45 1021 30.15 850 25.1 17.3 63.2 60 9.7 49.4
18:50 1021 30.15 850 25.1 17.2 62.9 60 9.3 48.8
18:55 1021 30.15 850 25.1 17.1 62.8 62 9.9 49.8
19:00 1021 30.15 850 25.1 17 62.6 63 10.1 50.1
19:05 1021 30.15 850 25.1 16.9 62.4 64 10.1 50.1
19:10 1021 30.15 850 25.1 17 62.5 61 9.6 49.2
19:15 1021 30.15 850 25.1 17.2 62.9 62 9.9 49.8
19:20 1021 30.15 850 25.1 17.8 64 59 9.7 49.5
19:25 1021 30.15 850 25.1 18.4 65.1 55 9.2 48.6
19:30 1021 30.15 850 25.1 18.7 65.6 53 8.9 48
19:35 1021 30.15 850 25.1 18.3 64.9 54 8.8 47.8
19:40 1021 30.15 850 25.1 18.3 64.9 51 8.1 46.6
19:45 1021 30.15 850 25.1 18.4 65.1 52 8.3 47
19:50 1021 30.15 850 25.1 18.5 65.2 51 8.3 46.9
19:55 1021 30.15 850 25.1 18.4 65 51 8.1 46.6
20:00 1021 30.15 850 25.1 18.3 64.9 52 8.3 46.9
20:05 1021 30.15 850 25.1 18 64.5 53 8.3 47
20:10 1021 30.15 850 25.1 17.9 64.3 53 8.2 46.7
20:15 1021 30.15 850 25.1 17.9 64.2 54 8.5 47.3
20:20 1021 30.15 850 25.1 17.9 64.1 54 8.4 47.2
20:25 1021 30.15 850 25.1 17.9 64.1 53 8.3 47
20:30 1021 30.15 850 25.1 17.8 64 53 8.3 46.9
20:35 1021 30.15 850 25.1 17.7 63.9 53 8.3 46.9
20:40 1021 30.15 850 25.1 17.7 63.9 53 8.2 46.8
20:45 1021 30.15 850 25.1 17.6 63.6 54 8.3 46.9
20:50 1021 30.15 850 25.1 17.4 63.3 53 7.8 46
20:55 1021 30.15 850 25.1 17.4 63.3 55 8.3 46.9
21:00 1021 30.15 850 25.1 17.3 63.2 58 9 48.2
21:05 1021 30.15 850 25.1 17.1 62.9 60 9.3 48.8
21:10 1021 30.15 850 25.1 16.9 62.5 61 9.5 49.1
21:15 1021 30.15 850 25.1 16.9 62.4 64 10.1 50.2
21:20 1021 30.15 850 25.1 16.6 61.9 65 10.1 50.1
21:25 1021 30.15 850 25.1 16.4 61.5 67 10.2 50.4
21:30 1021 30.15 850 25.1 16.1 60.9 67 10 49.9
21:35 1021 30.15 850 25.1 15.9 60.7 68 10.2 50.3
21:40 1021 30.15 851 25.13 15.8 60.5 68 10 50
21:45 1021 30.15 851 25.13 15.8 60.4 70 10.3 50.5
21:50 1021 30.15 851 25.13 15.6 60.2 72 10.6 51.1
21:55 1021 30.15 851 25.13 15.5 59.8 69 9.9 49.9
22:00 1021 30.15 851 25.13 15.3 59.5 68 9.4 48.9
22:05 1021 30.15 851 25.13 15.1 59.1 70 9.8 49.6
22:10 1022 30.18 851 25.13 15.1 59.1 68 9.3 48.7
22:15 1022 30.18 851 25.13 15.1 59.2 68 9.3 48.8
22:20 1022 30.18 851 25.13 15 59 70 9.7 49.4
22:25 1022 30.18 851 25.13 15 58.9 70 9.6 49.2
22:30 1022 30.18 851 25.13 14.8 58.7 70 9.6 49.2
22:35 1022 30.18 851 25.13 14.7 58.4 71 9.5 49.2
22:40 1022 30.18 851 25.13 14.6 58.3 72 9.7 49.5
22:45 1022 30.18 851 25.13 14.6 58.3 70 9.3 48.7
22:50 1022 30.18 851 25.13 14.6 58.2 70 9.1 48.4
22:55 1022 30.18 851 25.13 14.3 57.8 71 9.2 48.5
23:00 1022 30.18 851 25.13 14.1 57.3 72 9.1 48.3
23:05 1022 30.18 851 25.13 14 57.1 71 8.8 47.9
23:10 1022 30.18 851 25.13 14 57.2 71 8.9 48.1
23:15 1022 30.18 851 25.13 14 57.3 70 8.8 47.8
23:20 1022 30.18 851 25.13 14.3 57.7 69 8.7 47.6
23:25 1022 30.18 851 25.13 14.4 57.8 68 8.5 47.4
23:30 1022 30.18 851 25.13 14.3 57.8 69 8.7 47.7
23:35 1022 30.18 851 25.13 14.2 57.6 69 8.7 47.7
23:40 1022 30.18 851 25.13 14.1 57.4 71 8.9 48
23:45 1022 30.18 851 25.13 14 57.2 69 8.5 47.4
23:50 1022 30.18 851 25.13 14.1 57.4 69 8.5 47.3
23:55 1022 30.18 851 25.13 14.1 57.4 69 8.6 47.5
24:00 1022 30.18 851 25.13 13.9 57 70 8.5 47.3